Opotiki Weather Station Historical Data
Version 3.4b - 01-Dec-2017
Daily Summary for December 08, 2018 Units:  English    Metric   Both
« Previous Day
Next Day »
Daily Weekly Monthly Yearly Custom
  High: Low: Average:
Temperature: 82.2 °F 46.6 °F 64.9 °F
Dew Point: 59.4 °F 41.4 °F 51.1 °F
Humidity: 99% 27% 66%
Wind Speed: 3.8mph 0mph 0.9mph
Wind Gust: 10.7mph - -
Wind- - SSE
Pressure: 30.2 in 30.1 in -
Precipitation: 0 in    
Historical Graphs
 
 
Tabular Data for December 08, 2018
Time Temperature Dew Point Pressure Wind Wind Speed Wind Gust Humidity Rain Rate (Hrly) Rain Day
00:04 50.7 °F 46.9 °F 30.2 in Calm   0.7 mph 87% 0 in 0.0mm
00:08 50.7 °F 47.3 °F 30.2 in Calm   0.7 mph 88% 0 in 0.0mm
00:14 50.5 °F 47.5 °F 30.2 in Calm   0.7 mph 89% 0 in 0.0mm
00:18 50.5 °F 47.5 °F 30.2 in Calm   1.6 mph 89% 0 in 0.0mm
00:24 50.5 °F 47.5 °F 30.2 in Calm   1.6 mph 89% 0 in 0.0mm
00:28 50.4 °F 47.1 °F 30.2 in Calm   0.7 mph 89% 0 in 0.0mm
00:34 50.4 °F 47.5 °F 30.2 in Calm   0.7 mph 90% 0 in 0.0mm
00:38 50 °F 47.1 °F 30.2 in Calm   2.2 mph 90% 0 in 0.0mm
00:44 50 °F 47.1 °F 30.2 in Calm   2.2 mph 90% 0 in 0.0mm
00:48 50 °F 47.1 °F 30.2 in Calm   1.6 mph 90% 0 in 0.0mm
00:54 50 °F 47.1 °F 30.2 in Calm   1.6 mph 90% 0 in 0.0mm
00:58 50.2 °F 47.7 °F 30.2 in WNW 0.7 mph 1.6 mph 91% 0 in 0.0mm
01:04 50.4 °F 47.8 °F 30.2 in WNW 0.7 mph 2.2 mph 91% 0 in 0.0mm
01:08 50.4 °F 47.8 °F 30.2 in Calm   2.2 mph 91% 0 in 0.0mm
01:14 50.4 °F 47.8 °F 30.2 in Calm   1.6 mph 91% 0 in 0.0mm
01:18 50.4 °F 47.8 °F 30.2 in Calm   1.6 mph 91% 0 in 0.0mm
01:24 50 °F 47.5 °F 30.2 in Calm     91% 0 in 0.0mm
01:28 50 °F 47.5 °F 30.2 in Calm   1.6 mph 91% 0 in 0.0mm
01:34 49.8 °F 47.7 °F 30.2 in Calm   1.6 mph 92% 0 in 0.0mm
01:38 49.6 °F 47.5 °F 30.2 in Calm   1.6 mph 92% 0 in 0.0mm
01:44 49.5 °F 47.1 °F 30.2 in Calm   1.6 mph 92% 0 in 0.0mm
01:48 49.5 °F 47.1 °F 30.2 in Calm   1.6 mph 92% 0 in 0.0mm
01:54 49.3 °F 47.1 °F 30.2 in Calm   1.6 mph 92% 0 in 0.0mm
01:58 49.3 °F 47.1 °F 30.2 in Calm   1.6 mph 92% 0 in 0.0mm
02:04 49.1 °F 46.9 °F 30.2 in Calm   0.7 mph 92% 0 in 0.0mm
02:08 49.1 °F 46.9 °F 30.2 in Calm   0.7 mph 92% 0 in 0.0mm
02:14 48.7 °F 46.6 °F 30.2 in Calm   0.7 mph 92% 0 in 0.0mm
02:18 48.7 °F 46.6 °F 30.2 in Calm   0.7 mph 92% 0 in 0.0mm
02:24 48.7 °F 46.8 °F 30.2 in Calm   1.6 mph 93% 0 in 0.0mm
02:28 48.7 °F 46.8 °F 30.2 in Calm   1.6 mph 93% 0 in 0.0mm
02:34 48.9 °F 46.9 °F 30.2 in Calm   1.6 mph 93% 0 in 0.0mm
02:38 48.9 °F 46.9 °F 30.2 in Calm   1.6 mph 93% 0 in 0.0mm
02:44 48.9 °F 46.9 °F 30.2 in Calm   0.7 mph 93% 0 in 0.0mm
02:48 48.7 °F 46.8 °F 30.2 in Calm   0.7 mph 93% 0 in 0.0mm
02:54 48.9 °F 46.9 °F 30.2 in Calm   0.7 mph 93% 0 in 0.0mm
02:58 48.7 °F 46.8 °F 30.2 in Calm   0.7 mph 93% 0 in 0.0mm
03:04 48.6 °F 46.6 °F 30.2 in Calm   0.7 mph 93% 0 in 0.0mm
03:08 48.6 °F 46.6 °F 30.2 in Calm   0.7 mph 93% 0 in 0.0mm
03:14 48 °F 46.4 °F 30.2 in Calm     94% 0 in 0.0mm
03:18 47.8 °F 46.2 °F 30.2 in Calm   0.7 mph 94% 0 in 0.0mm
03:24 47.8 °F 46.2 °F 30.2 in Calm   0.7 mph 94% 0 in 0.0mm
03:28 47.8 °F 46.2 °F 30.2 in Calm   0.7 mph 94% 0 in 0.0mm
03:34 47.7 °F 46 °F 30.2 in Calm   0.7 mph 94% 0 in 0.0mm
03:38 47.8 °F 46.2 °F 30.2 in Calm   0.7 mph 94% 0 in 0.0mm
03:44 47.8 °F 46.6 °F 30.2 in Calm   0.7 mph 95% 0 in 0.0mm
03:48 47.8 °F 46.6 °F 30.2 in Calm   0.7 mph 95% 0 in 0.0mm
03:54 47.7 °F 46.2 °F 30.2 in Calm   0.7 mph 95% 0 in 0.0mm
03:58 47.7 °F 46.2 °F 30.2 in Calm   0.7 mph 95% 0 in 0.0mm
04:04 47.5 °F 46 °F 30.2 in Calm   0.7 mph 95% 0 in 0.0mm
04:08 47.1 °F 45.9 °F 30.2 in Calm   0.7 mph 95% 0 in 0.0mm
04:14 47.1 °F 45.9 °F 30.2 in Calm   0.7 mph 95% 0 in 0.0mm
04:18 47.1 °F 45.9 °F 30.2 in Calm   0.7 mph 95% 0 in 0.0mm
04:24 47.1 °F 45.9 °F 30.2 in Calm   0.7 mph 95% 0 in 0.0mm
04:28 47.3 °F 45.9 °F 30.2 in Calm   0.7 mph 95% 0 in 0.0mm
04:34 47.5 °F 46.4 °F 30.2 in WSW 0.7 mph 1.6 mph 96% 0 in 0.0mm
04:38 47.5 °F 46.4 °F 30.2 in Calm   1.6 mph 96% 0 in 0.0mm
04:44 47.5 °F 46.4 °F 30.2 in Calm   1.6 mph 96% 0 in 0.0mm
04:48 47.3 °F 46.2 °F 30.2 in Calm   0.7 mph 96% 0 in 0.0mm
04:54 47.3 °F 46.2 °F 30.2 in Calm   0.7 mph 96% 0 in 0.0mm
04:58 47.1 °F 46 °F 30.2 in Calm   0.7 mph 96% 0 in 0.0mm
05:04 46.8 °F 45.7 °F 30.2 in Calm   0.7 mph 96% 0 in 0.0mm
05:08 46.8 °F 45.7 °F 30.2 in Calm   0.7 mph 96% 0 in 0.0mm
05:14 46.8 °F 46 °F 30.2 in Calm   0.7 mph 97% 0 in 0.0mm
05:18 46.6 °F 45.9 °F 30.2 in Calm   0.7 mph 97% 0 in 0.0mm
05:24 46.6 °F 45.9 °F 30.2 in Calm   0.7 mph 97% 0 in 0.0mm
05:28 46.6 °F 45.9 °F 30.2 in Calm   0.7 mph 97% 0 in 0.0mm
05:34 46.6 °F 45.9 °F 30.2 in Calm     97% 0 in 0.0mm
05:38 46.6 °F 45.9 °F 30.2 in Calm   0.7 mph 97% 0 in 0.0mm
05:44 46.6 °F 45.9 °F 30.2 in Calm   0.7 mph 97% 0 in 0.0mm
05:48 46.8 °F 46 °F 30.2 in Calm   0.7 mph 97% 0 in 0.0mm
05:54 46.8 °F 46 °F 30.2 in Calm   0.7 mph 97% 0 in 0.0mm
05:58 46.9 °F 46 °F 30.2 in Calm   0.7 mph 97% 0 in 0.0mm
06:04 46.9 °F 46.4 °F 30.2 in Calm     98% 0 in 0.0mm
06:08 46.9 °F 46.4 °F 30.2 in Calm     98% 0 in 0.0mm
06:14 46.9 °F 46.4 °F 30.2 in Calm     98% 0 in 0.0mm
06:18 47.1 °F 46.6 °F 30.2 in Calm     98% 0 in 0.0mm
06:24 47.3 °F 46.8 °F 30.2 in Calm     98% 0 in 0.0mm
06:28 47.5 °F 46.9 °F 30.2 in Calm   0.7 mph 98% 0 in 0.0mm
06:34 47.8 °F 47.7 °F 30.2 in Calm   0.7 mph 99% 0 in 0.0mm
06:38 47.8 °F 47.7 °F 30.2 in Calm   0.7 mph 99% 0 in 0.0mm
06:44 48.2 °F 47.7 °F 30.2 in Calm   0.7 mph 98% 0 in 0.0mm
06:48 48.4 °F 47.8 °F 30.2 in Calm   0.7 mph 98% 0 in 0.0mm
06:54 48.7 °F 48.2 °F 30.2 in WSW 0.7 mph 1.6 mph 98% 0 in 0.0mm
06:58 49.1 °F 48.6 °F 30.2 in Calm   1.6 mph 98% 0 in 0.0mm
07:04 49.6 °F 49.5 °F 30.2 in Calm   1.6 mph 99% 0 in 0.0mm
07:08 49.8 °F 49.6 °F 30.2 in Calm   1.6 mph 99% 0 in 0.0mm
07:14 50.2 °F 49.6 °F 30.2 in Calm   0.7 mph 98% 0 in 0.0mm
07:18 50.5 °F 50 °F 30.2 in Calm   0.7 mph 98% 0 in 0.0mm
07:24 50.9 °F 50.4 °F 30.2 in Calm   0.7 mph 98% 0 in 0.0mm
07:28 51.1 °F 50.5 °F 30.2 in Calm   0.7 mph 98% 0 in 0.0mm
07:34 52.2 °F 51.6 °F 30.2 in Calm   1.6 mph 98% 0 in 0.0mm
07:38 53.8 °F 53.1 °F 30.2 in Calm   1.6 mph 97% 0 in 0.0mm
07:44 57 °F 56.1 °F 30.2 in Calm   2.2 mph 97% 0 in 0.0mm
07:48 59 °F 57.6 °F 30.2 in Calm   2.2 mph 95% 0 in 0.0mm
07:54 61.2 °F 58.8 °F 30.2 in WNW 0.7 mph 2.2 mph 92% 0 in 0.0mm
07:58 62.6 °F 59.4 °F 30.2 in Calm   2.2 mph 89% 0 in 0.0mm
08:04 64.8 °F 59.2 °F 30.2 in WNW 0.7 mph 1.6 mph 82% 0 in 0.0mm
08:08 65.5 °F 55.6 °F 30.2 in West 0.7 mph 3.1 mph 70% 0 in 0.0mm
08:14 65.8 °F 52.9 °F 30.2 in Calm   3.1 mph 63% 0 in 0.0mm
08:18 66.6 °F 53.2 °F 30.2 in Calm   3.1 mph 62% 0 in 0.0mm
08:24 68.5 °F 52.7 °F 30.2 in West 0.7 mph 2.2 mph 57% 0 in 0.0mm
08:28 69.3 °F 52.3 °F 30.2 in WSW 0.7 mph 2.2 mph 55% 0 in 0.0mm
08:34 70.2 °F 51.6 °F 30.2 in WNW 0.7 mph 2.2 mph 52% 0 in 0.0mm
08:38 70.5 °F 52.2 °F 30.2 in NW 0.7 mph 1.6 mph 52% 0 in 0.0mm
08:44 72.3 °F 51.6 °F 30.2 in Calm   3.1 mph 48% 0 in 0.0mm
08:48 73.2 °F 51.8 °F 30.2 in NE 1.6 mph 3.1 mph 47% 0 in 0.0mm
08:54 74.5 °F 51.8 °F 30.2 in Calm   2.2 mph 45% 0 in 0.0mm
08:58 75 °F 52.9 °F 30.2 in Calm   2.2 mph 46% 0 in 0.0mm
09:04 75.9 °F 50.5 °F 30.2 in NNW 0.7 mph 2.2 mph 41% 0 in 0.0mm
09:08 75.9 °F 50.5 °F 30.2 in Calm   2.2 mph 41% 0 in 0.0mm
09:14 77 °F 50.2 °F 30.2 in ENE 0.7 mph 2.2 mph 39% 0 in 0.0mm
09:18 77.4 °F 49.1 °F 30.2 in ESE 0.7 mph 2.2 mph 37% 0 in 0.0mm
09:24 77.4 °F 49.8 °F 30.2 in Calm   2.2 mph 38% 0 in 0.0mm
09:28 78.1 °F 51.1 °F 30.2 in Calm   2.2 mph 39% 0 in 0.0mm
09:34 80.1 °F 51.4 °F 30.2 in Calm   3.1 mph 37% 0 in 0.0mm
09:38 80.1 °F 47.7 °F 30.2 in East 0.7 mph 3.1 mph 32% 0 in 0.0mm
09:44 79.2 °F 47.7 °F 30.2 in North 0.7 mph 2.2 mph 33% 0 in 0.0mm
09:48 79.5 °F 51.1 °F 30.2 in NW 0.7 mph 2.2 mph 37% 0 in 0.0mm
09:54 79.7 °F 48 °F 30.2 in NW 1.6 mph 2.2 mph 33% 0 in 0.0mm
09:58 78.8 °F 48 °F 30.2 in WNW 0.7 mph 2.2 mph 34% 0 in 0.0mm
10:04 76.8 °F 49.3 °F 30.2 in Calm   3.1 mph 38% 0 in 0.0mm
10:08 77.4 °F 49.1 °F 30.2 in Calm   3.1 mph 37% 0 in 0.0mm
10:14 79.9 °F 49.8 °F 30.2 in Calm   2.2 mph 35% 0 in 0.0mm
10:18 81.7 °F 51.4 °F 30.2 in Calm   2.2 mph 35% 0 in 0.0mm
10:24 82.2 °F 45 °F 30.2 in West 0.7 mph 2.2 mph 27% 0 in 0.0mm
10:28 80.6 °F 44.4 °F 30.2 in Calm   3.1 mph 28% 0 in 0.0mm
10:34 78.1 °F 41.4 °F 30.2 in WNW 0.7 mph 4.5 mph 27% 0 in 0.0mm
10:38 77.9 °F 48 °F 30.2 in WNW 2.2 mph 4.5 mph 35% 0 in 0.0mm
10:44 77.4 °F 49.1 °F 30.2 in West 1.6 mph 4.5 mph 37% 0 in 0.0mm
10:48 76.8 °F 51.4 °F 30.2 in West 1.6 mph 4.5 mph 41% 0 in 0.0mm
10:54 76.1 °F 50.7 °F 30.2 in WNW 1.6 mph 4.5 mph 41% 0 in 0.0mm
10:58 75.9 °F 50.5 °F 30.2 in WNW 1.6 mph 4.5 mph 41% 0 in 0.0mm
11:04 75.7 °F 51.1 °F 30.2 in West 3.1 mph 6 mph 42% 0 in 0.0mm
11:08 74.5 °F 51.3 °F 30.2 in NNW 2.2 mph 6 mph 44% 0 in 0.0mm
11:14 73.2 °F 50 °F 30.2 in NW 2.2 mph 6 mph 44% 0 in 0.0mm
11:18 74.1 °F 49.6 °F 30.2 in WNW 2.2 mph 6 mph 42% 0 in 0.0mm
11:24 74.3 °F 49.8 °F 30.2 in NW 2.2 mph 6 mph 42% 0 in 0.0mm
11:28 74.5 °F 47.8 °F 30.2 in NW 2.2 mph 5.4 mph 39% 0 in 0.0mm
11:34 75.4 °F 48 °F 30.2 in NW 3.1 mph 5.4 mph 38% 0 in 0.0mm
11:38 75 °F 47.7 °F 30.2 in WNW 1.6 mph 5.4 mph 38% 0 in 0.0mm
11:44 75.6 °F 48.9 °F 30.2 in NW 2.2 mph 5.4 mph 39% 0 in 0.0mm
11:48 75.4 °F 50.2 °F 30.1 in NW 1.6 mph 6.9 mph 41% 0 in 0.0mm
11:54 76.3 °F 52.2 °F 30.1 in WSW 2.2 mph 6.9 mph 43% 0 in 0.0mm
11:58 75.6 °F 52.2 °F 30.1 in WNW 3.1 mph 6.9 mph 44% 0 in 0.0mm
12:04 75 °F 53.4 °F 30.1 in WNW 3.8 mph 6.9 mph 47% 0 in 0.0mm
12:08 74.3 °F 52.9 °F 30.1 in West 2.2 mph 6.9 mph 47% 0 in 0.0mm
12:14 74.3 °F 52.9 °F 30.1 in West 3.1 mph 8.3 mph 47% 0 in 0.0mm
12:18 74.1 °F 52 °F 30.1 in West 3.8 mph 8.3 mph 46% 0 in 0.0mm
12:24 75 °F 52.3 °F 30.1 in West 3.1 mph 6.9 mph 45% 0 in 0.0mm
12:28 75.4 °F 52 °F 30.1 in WNW 2.2 mph 6.9 mph 44% 0 in 0.0mm
12:34 76.8 °F 52.7 °F 30.1 in WNW 3.1 mph 7.6 mph 43% 0 in 0.0mm
12:38 77 °F 51.4 °F 30.1 in WNW 2.2 mph 7.6 mph 41% 0 in 0.0mm
12:44 77.4 °F 52.5 °F 30.1 in NW 3.1 mph 7.6 mph 42% 0 in 0.0mm
12:48 77.5 °F 52.7 °F 30.1 in NW 2.2 mph 6.9 mph 42% 0 in 0.0mm
12:54 77 °F 52.2 °F 30.1 in NNW 2.2 mph 9.2 mph 42% 0 in 0.0mm
12:58 76.6 °F 53.8 °F 30.1 in NNW 3.1 mph 9.2 mph 45% 0 in 0.0mm
13:04 76.5 °F 53.6 °F 30.1 in NNE 3.8 mph 9.2 mph 45% 0 in 0.0mm
13:08 76.1 °F 52 °F 30.1 in NNE 2.2 mph 9.2 mph 43% 0 in 0.0mm
13:14 75.2 °F 51.8 °F 30.1 in NW 2.2 mph 7.6 mph 44% 0 in 0.0mm
13:18 74.8 °F 52.2 °F 30.1 in SSW 3.1 mph 10.7 mph 45% 0 in 0.0mm
13:24 74.5 °F 51.8 °F 30.1 in WSW 3.8 mph 10.7 mph 45% 0 in 0.0mm
13:28 75 °F 52.9 °F 30.1 in NNW 2.2 mph 6.9 mph 46% 0 in 0.0mm
13:34 75.7 °F 52.3 °F 30.1 in NE 2.2 mph 6 mph 44% 0 in 0.0mm
13:38 75.9 °F 52.5 °F 30.1 in NNE 2.2 mph 6 mph 44% 0 in 0.0mm
13:44 75.7 °F 54.1 °F 30.1 in NW 2.2 mph 6.9 mph 47% 0 in 0.0mm
13:48 76.1 °F 54.3 °F 30.1 in NW 3.8 mph 6.9 mph 47% 0 in 0.0mm
13:54 75.7 °F 54.1 °F 30.1 in NNW 3.1 mph 7.6 mph 47% 0 in 0.0mm
13:58 75.4 °F 54.3 °F 30.1 in NW 3.1 mph 7.6 mph 48% 0 in 0.0mm
14:04 75 °F 56.8 °F 30.1 in West 3.1 mph 6.9 mph 53% 0 in 0.0mm
14:08 74.8 °F 57 °F 30.1 in West 2.2 mph 6 mph 54% 0 in 0.0mm
14:14 75 °F 55.8 °F 30.1 in NW 3.1 mph 6 mph 51% 0 in 0.0mm
14:18 74.8 °F 56.1 °F 30.1 in NNW 3.1 mph 6.9 mph 52% 0 in 0.0mm
14:24 75.6 °F 56.1 °F 30.1 in NNW 3.1 mph 6.9 mph 51% 0 in 0.0mm
14:28 76.3 °F 56.3 °F 30.1 in WNW 2.2 mph 6.9 mph 50% 0 in 0.0mm
14:34 76.3 °F 56.3 °F 30.1 in NNE 3.1 mph 6.9 mph 50% 0 in 0.0mm
14:38 76.1 °F 56.7 °F 30.1 in NE 2.2 mph 6.9 mph 51% 0 in 0.0mm
14:44 77 °F 54.7 °F 30.1 in NE 3.8 mph 6 mph 46% 0 in 0.0mm
14:48 76.8 °F 55.8 °F 30.1 in NNE 3.1 mph 6 mph 48% 0 in 0.0mm
14:54 77.5 °F 55.8 °F 30.1 in East 2.2 mph 6 mph 47% 0 in 0.0mm
14:58 77.4 °F 54.3 °F 30.1 in ENE 3.8 mph 6 mph 45% 0 in 0.0mm
15:04 77.4 °F 53.2 °F 30.1 in North 3.1 mph 6 mph 43% 0 in 0.0mm
15:08 77.4 °F 53.2 °F 30.1 in NE 3.1 mph 6 mph 43% 0 in 0.0mm
15:14 77.9 °F 53.6 °F 30.1 in NE 1.6 mph 8.3 mph 43% 0 in 0.0mm
15:18 78.4 °F 54.1 °F 30.1 in NE 2.2 mph 8.3 mph 43% 0 in 0.0mm
15:24 79 °F 53.2 °F 30.1 in NE 1.6 mph 6 mph 41% 0 in 0.0mm
15:28 79.3 °F 53.1 °F 30.1 in NNE 0.7 mph 6 mph 40% 0 in 0.0mm
15:34 79 °F 52.5 °F 30.1 in NE 3.1 mph 6 mph 40% 0 in 0.0mm
15:38 78.4 °F 53.4 °F 30.1 in North 2.2 mph 5.4 mph 42% 0 in 0.0mm
15:44 78.4 °F 52.9 °F 30.1 in NE 1.6 mph 6 mph 41% 0 in 0.0mm
15:48 78.4 °F 54.1 °F 30.1 in ENE 1.6 mph 6 mph 43% 0 in 0.0mm
15:54 78.4 °F 53.4 °F 30.1 in NE 1.6 mph 6 mph 42% 0 in 0.0mm
15:58 79 °F 53.2 °F 30.1 in NE 3.8 mph 6.9 mph 41% 0 in 0.0mm
16:04 79 °F 53.2 °F 30.1 in NE 1.6 mph 6.9 mph 41% 0 in 0.0mm
16:08 79 °F 54 °F 30.1 in NE 2.2 mph 7.6 mph 42% 0 in 0.0mm
16:14 79.3 °F 54.3 °F 30.1 in ENE 2.2 mph 7.6 mph 42% 0 in 0.0mm
16:18 79.2 °F 54.1 °F 30.1 in NE 3.1 mph 6 mph 42% 0 in 0.0mm
16:24 78.3 °F 54 °F 30.1 in NE 1.6 mph 5.4 mph 43% 0 in 0.0mm
16:28 78.1 °F 54.3 °F 30.1 in NNE 3.1 mph 5.4 mph 44% 0 in 0.0mm
16:34 78.4 °F 54.1 °F 30.1 in NNE 0.7 mph 5.4 mph 43% 0 in 0.0mm
16:38 79.2 °F 54.1 °F 30.1 in NE 1.6 mph 6.9 mph 42% 0 in 0.0mm
16:44 79.7 °F 53.2 °F 30.1 in NE 2.2 mph 7.6 mph 40% 0 in 0.0mm
16:48 79.5 °F 53.8 °F 30.1 in NNE 2.2 mph 7.6 mph 41% 0 in 0.0mm
16:54 79 °F 53.2 °F 30.1 in NNE 3.1 mph 5.4 mph 41% 0 in 0.0mm
16:58 78.4 °F 53.4 °F 30.1 in NNE 2.2 mph 6 mph 42% 0 in 0.0mm
17:04 78.4 °F 53.4 °F 30.1 in NE 3.1 mph 6 mph 42% 0 in 0.0mm
17:08 78.4 °F 54.1 °F 30.1 in NE 3.1 mph 5.4 mph 43% 0 in 0.0mm
17:14 78.4 °F 54.1 °F 30.1 in NE 1.6 mph 5.4 mph 43% 0 in 0.0mm
17:18 78.4 °F 53.4 °F 30.1 in NE 1.6 mph 5.4 mph 42% 0 in 0.0mm
17:24 78.3 °F 53.2 °F 30.1 in NNE 1.6 mph 6.9 mph 42% 0 in 0.0mm
17:28 79 °F 54 °F 30.1 in NNE 2.2 mph 6.9 mph 42% 0 in 0.0mm
17:34 79.2 °F 53.4 °F 30.1 in NE 0.7 mph 4.5 mph 41% 0 in 0.0mm
17:38 79.7 °F 53.2 °F 30.1 in NE 2.2 mph 5.4 mph 40% 0 in 0.0mm
17:44 79 °F 52.5 °F 30.1 in NNE 3.1 mph 5.4 mph 40% 0 in 0.0mm
17:48 78.4 °F 52.9 °F 30.1 in NNE 1.6 mph 5.4 mph 41% 0 in 0.0mm
17:54 78.3 °F 53.2 °F 30.1 in North 0.7 mph 5.4 mph 42% 0 in 0.0mm
17:58 77.9 °F 52.3 °F 30.1 in NE 2.2 mph 6 mph 41% 0 in 0.0mm
18:04 78.4 °F 54.1 °F 30.1 in ENE 3.1 mph 6 mph 43% 0 in 0.0mm
18:08 77.9 °F 53.1 °F 30.1 in NNE 2.2 mph 6 mph 42% 0 in 0.0mm
18:14 77.5 °F 52.7 °F 30.1 in NE 1.6 mph 6.9 mph 42% 0 in 0.0mm
18:18 77.9 °F 53.1 °F 30.1 in NE 1.6 mph 6.9 mph 42% 0 in 0.0mm
18:24 78.1 °F 52.5 °F 30.1 in NNE 1.6 mph 3.8 mph 41% 0 in 0.0mm
18:28 78.4 °F 52.9 °F 30.1 in NNE 1.6 mph 3.8 mph 41% 0 in 0.0mm
18:34 79.7 °F 52.5 °F 30.1 in NNE 0.7 mph 3.1 mph 39% 0 in 0.0mm
18:38 78.4 °F 52.2 °F 30.1 in ENE 2.2 mph 3.8 mph 40% 0 in 0.0mm
18:44 79 °F 52 °F 30.1 in ESE 0.7 mph 3.8 mph 39% 0 in 0.0mm
18:48 78.4 °F 51.4 °F 30.1 in North 1.6 mph 4.5 mph 39% 0 in 0.0mm
18:54 78.1 °F 52.5 °F 30.1 in NNW 0.7 mph 5.4 mph 41% 0 in 0.0mm
18:58 78.1 °F 52.5 °F 30.1 in NNW 2.2 mph 5.4 mph 41% 0 in 0.0mm
19:04 77.4 °F 52.5 °F 30.1 in North 0.7 mph 3.8 mph 42% 0 in 0.0mm
19:08 77.2 °F 52.3 °F 30.1 in ENE 0.7 mph 3.8 mph 42% 0 in 0.0mm
19:14 75.9 °F 52.5 °F 30.1 in NNE 0.7 mph 3.8 mph 44% 0 in 0.0mm
19:18 75.7 °F 52.9 °F 30.1 in NNE 1.6 mph 3.8 mph 45% 0 in 0.0mm
19:24 75 °F 52.3 °F 30.1 in NE 1.6 mph 3.1 mph 45% 0 in 0.0mm
19:28 73.9 °F 52 °F 30.1 in Calm   3.1 mph 46% 0 in 0.0mm
19:34 73.2 °F 52.3 °F 30.1 in NNW 0.7 mph 3.1 mph 48% 0 in 0.0mm
19:38 72.5 °F 52.3 °F 30.1 in NNW 1.6 mph 3.1 mph 49% 0 in 0.0mm
19:44 70.3 °F 51.4 °F 30.1 in NNE 2.2 mph 3.1 mph 51% 0 in 0.0mm
19:48 69.1 °F 51.3 °F 30.1 in NE 1.6 mph 3.1 mph 53% 0 in 0.0mm
19:54 67.1 °F 50.9 °F 30.1 in ENE 1.6 mph 3.1 mph 56% 0 in 0.0mm
19:58 66.2 °F 51.1 °F 30.1 in NE 0.7 mph 3.1 mph 58% 0 in 0.0mm
20:04 65.3 °F 51.4 °F 30.1 in NNE 0.7 mph 3.1 mph 61% 0 in 0.0mm
20:08 64.8 °F 51.4 °F 30.1 in North 0.7 mph 3.1 mph 62% 0 in 0.0mm
20:14 64.2 °F 51.4 °F 30.1 in NNE 0.7 mph 3.1 mph 63% 0 in 0.0mm
20:18 64 °F 51.6 °F 30.1 in NNE 0.7 mph 3.1 mph 64% 0 in 0.0mm
20:24 63.7 °F 52.2 °F 30.1 in Calm   3.1 mph 66% 0 in 0.0mm
20:28 63.3 °F 52.2 °F 30.1 in Calm   2.2 mph 67% 0 in 0.0mm
20:34 62.8 °F 52.2 °F 30.1 in West 0.7 mph 2.2 mph 68% 0 in 0.0mm
20:38 62.6 °F 52 °F 30.1 in Calm   2.2 mph 68% 0 in 0.0mm
20:44 62.4 °F 52.5 °F 30.1 in Calm   3.1 mph 70% 0 in 0.0mm
20:48 62.4 °F 52.9 °F 30.1 in Calm   3.1 mph 71% 0 in 0.0mm
20:54 62.2 °F 53.1 °F 30.1 in Calm   3.1 mph 72% 0 in 0.0mm
20:58 62.1 °F 53.2 °F 30.1 in Calm   2.2 mph 73% 0 in 0.0mm
21:04 61.7 °F 53.1 °F 30.1 in Calm   1.6 mph 73% 0 in 0.0mm
21:08 61.5 °F 53.2 °F 30.1 in Calm   1.6 mph 74% 0 in 0.0mm
21:14 61.5 °F 53.2 °F 30.1 in WNW 1.6 mph 3.1 mph 74% 0 in 0.0mm
21:18 61.7 °F 53.8 °F 30.1 in Calm   3.1 mph 75% 0 in 0.0mm
21:24 61.9 °F 54.1 °F 30.1 in Calm   2.2 mph 76% 0 in 0.0mm
21:28 62.2 °F 54.7 °F 30.1 in Calm   1.6 mph 76% 0 in 0.0mm
21:34 62.8 °F 55 °F 30.1 in Calm   2.2 mph 76% 0 in 0.0mm
21:38 63 °F 55.2 °F 30.1 in Calm   2.2 mph 76% 0 in 0.0mm
21:44 63.1 °F 55.6 °F 30.1 in Calm   3.1 mph 76% 0 in 0.0mm
21:48 63.1 °F 55.6 °F 30.1 in Calm   3.1 mph 76% 0 in 0.0mm
21:54 62.8 °F 55 °F 30.1 in Calm   0.7 mph 76% 0 in 0.0mm
21:58 62.4 °F 55 °F 30.1 in Calm   0.7 mph 77% 0 in 0.0mm
22:04 62.1 °F 55 °F 30.1 in Calm   0.7 mph 78% 0 in 0.0mm
22:08 61.9 °F 55 °F 30.2 in Calm   0.7 mph 78% 0 in 0.0mm
22:14 61.7 °F 55 °F 30.2 in Calm   1.6 mph 79% 0 in 0.0mm
22:18 61.5 °F 55 °F 30.2 in Calm   1.6 mph 79% 0 in 0.0mm
22:24 61.3 °F 54.9 °F 30.2 in Calm   0.7 mph 79% 0 in 0.0mm
22:28 61.3 °F 54.9 °F 30.2 in Calm   0.7 mph 79% 0 in 0.0mm
22:34 61.2 °F 55 °F 30.2 in Calm   0.7 mph 80% 0 in 0.0mm
22:38 61.2 °F 55 °F 30.2 in Calm   0.7 mph 80% 0 in 0.0mm
22:44 61.2 °F 55 °F 30.2 in Calm   0.7 mph 80% 0 in 0.0mm
22:48 61 °F 54.9 °F 30.2 in Calm     80% 0 in 0.0mm
22:54 61 °F 54.9 °F 30.1 in Calm     80% 0 in 0.0mm
22:58 61 °F 54.9 °F 30.1 in Calm     80% 0 in 0.0mm
23:04 61 °F 55 °F 30.1 in Calm     81% 0 in 0.0mm
23:08 61.2 °F 55.2 °F 30.1 in Calm     81% 0 in 0.0mm
23:14 61.2 °F 55.2 °F 30.1 in Calm     81% 0 in 0.0mm
23:18 61.2 °F 55.2 °F 30.1 in Calm     81% 0 in 0.0mm
23:24 61.2 °F 55.6 °F 30.1 in Calm     82% 0 in 0.0mm
23:28 61.2 °F 55.6 °F 30.1 in Calm     82% 0 in 0.0mm
23:34 61.2 °F 55.6 °F 30.1 in Calm     82% 0 in 0.0mm
23:38 61.2 °F 55.6 °F 30.1 in Calm     82% 0 in 0.0mm
23:44 61.2 °F 55.6 °F 30.1 in Calm     82% 0 in 0.0mm
23:48 61.2 °F 55.6 °F 30.1 in Calm     82% 0 in 0.0mm
23:54 61.2 °F 55.9 °F 30.1 in Calm     83% 0 in 0.0mm
23:58 61.2 °F 55.9 °F 30.1 in Calm     83% 0 in 0.0mm
Opotiki Town Weather
Compliments of Weather Underground - 2.25 mb

NZ Local Weather Forum      Cumulus Top Weather Sites      New Zealand Top40 Weather Station Sites      Flag Counter